sensor_id;sensor_type;location;lat;lon;timestamp;P1;durP1;ratioP1;P2;durP2;ratioP2
2724;SDS011;1370;52.596;13.112;2022-12-13T00:00:17;35.70;;;20.30;;
2724;SDS011;1370;52.596;13.112;2022-12-13T00:02:43;30.65;;;18.80;;
2724;SDS011;1370;52.596;13.112;2022-12-13T00:05:09;30.00;;;19.03;;
2724;SDS011;1370;52.596;13.112;2022-12-13T00:07:35;29.98;;;19.08;;
2724;SDS011;1370;52.596;13.112;2022-12-13T00:10:01;30.17;;;17.60;;
2724;SDS011;1370;52.596;13.112;2022-12-13T00:12:26;36.07;;;19.10;;
2724;SDS011;1370;52.596;13.112;2022-12-13T00:14:52;33.73;;;18.03;;
2724;SDS011;1370;52.596;13.112;2022-12-13T00:17:17;34.83;;;18.90;;
2724;SDS011;1370;52.596;13.112;2022-12-13T00:19:43;31.63;;;18.77;;
2724;SDS011;1370;52.596;13.112;2022-12-13T00:22:08;28.57;;;17.47;;
2724;SDS011;1370;52.596;13.112;2022-12-13T00:24:33;35.20;;;18.50;;
2724;SDS011;1370;52.596;13.112;2022-12-13T00:26:58;29.53;;;16.43;;
2724;SDS011;1370;52.596;13.112;2022-12-13T00:29:24;35.07;;;18.60;;
2724;SDS011;1370;52.596;13.112;2022-12-13T00:31:49;27.77;;;15.43;;
2724;SDS011;1370;52.596;13.112;2022-12-13T00:34:15;34.27;;;19.03;;
2724;SDS011;1370;52.596;13.112;2022-12-13T00:36:40;28.97;;;18.20;;
2724;SDS011;1370;52.596;13.112;2022-12-13T00:39:05;35.73;;;17.60;;
2724;SDS011;1370;52.596;13.112;2022-12-13T00:41:31;40.80;;;18.83;;
2724;SDS011;1370;52.596;13.112;2022-12-13T00:43:58;39.70;;;19.80;;
2724;SDS011;1370;52.596;13.112;2022-12-13T00:46:24;35.45;;;18.10;;
2724;SDS011;1370;52.596;13.112;2022-12-13T00:48:52;30.47;;;17.30;;
2724;SDS011;1370;52.596;13.112;2022-12-13T00:51:21;33.15;;;18.33;;
2724;SDS011;1370;52.596;13.112;2022-12-13T00:53:47;28.90;;;16.70;;
2724;SDS011;1370;52.596;13.112;2022-12-13T00:56:13;33.97;;;18.07;;
2724;SDS011;1370;52.596;13.112;2022-12-13T00:58:40;30.10;;;18.00;;
2724;SDS011;1370;52.596;13.112;2022-12-13T01:01:10;44.17;;;18.50;;
2724;SDS011;1370;52.596;13.112;2022-12-13T01:03:37;30.50;;;18.10;;
2724;SDS011;1370;52.596;13.112;2022-12-13T01:06:13;37.88;;;20.00;;
2724;SDS011;1370;52.596;13.112;2022-12-13T01:08:40;27.00;;;16.80;;
2724;SDS011;1370;52.596;13.112;2022-12-13T01:11:05;32.97;;;17.33;;
2724;SDS011;1370;52.596;13.112;2022-12-13T01:13:31;32.33;;;18.10;;
2724;SDS011;1370;52.596;13.112;2022-12-13T01:15:57;34.17;;;17.43;;
2724;SDS011;1370;52.596;13.112;2022-12-13T01:18:22;23.70;;;16.67;;
2724;SDS011;1370;52.596;13.112;2022-12-13T01:21:02;27.73;;;16.43;;
2724;SDS011;1370;52.596;13.112;2022-12-13T01:23:29;25.48;;;16.85;;
2724;SDS011;1370;52.596;13.112;2022-12-13T01:25:54;24.93;;;16.67;;
2724;SDS011;1370;52.596;13.112;2022-12-13T01:28:20;31.80;;;16.80;;
2724;SDS011;1370;52.596;13.112;2022-12-13T01:30:56;36.97;;;17.80;;
2724;SDS011;1370;52.596;13.112;2022-12-13T01:33:22;29.35;;;16.60;;
2724;SDS011;1370;52.596;13.112;2022-12-13T01:35:48;27.80;;;16.53;;
2724;SDS011;1370;52.596;13.112;2022-12-13T01:38:13;23.20;;;14.87;;
2724;SDS011;1370;52.596;13.112;2022-12-13T01:40:43;30.73;;;15.43;;
2724;SDS011;1370;52.596;13.112;2022-12-13T01:43:11;32.55;;;16.33;;
2724;SDS011;1370;52.596;13.112;2022-12-13T01:45:37;26.80;;;16.07;;
2724;SDS011;1370;52.596;13.112;2022-12-13T01:48:03;25.03;;;15.70;;
2724;SDS011;1370;52.596;13.112;2022-12-13T01:50:34;26.97;;;17.00;;
2724;SDS011;1370;52.596;13.112;2022-12-13T01:53:04;26.95;;;16.50;;
2724;SDS011;1370;52.596;13.112;2022-12-13T01:55:31;24.92;;;16.95;;
2724;SDS011;1370;52.596;13.112;2022-12-13T01:57:58;33.27;;;17.07;;
2724;SDS011;1370;52.596;13.112;2022-12-13T02:00:25;28.50;;;17.47;;
2724;SDS011;1370;52.596;13.112;2022-12-13T02:02:51;40.73;;;17.27;;
2724;SDS011;1370;52.596;13.112;2022-12-13T02:05:20;31.03;;;17.37;;
2724;SDS011;1370;52.596;13.112;2022-12-13T02:07:48;29.10;;;16.90;;
2724;SDS011;1370;52.596;13.112;2022-12-13T02:10:14;31.40;;;19.33;;
2724;SDS011;1370;52.596;13.112;2022-12-13T02:12:39;29.40;;;16.40;;
2724;SDS011;1370;52.596;13.112;2022-12-13T02:15:06;29.67;;;15.97;;
2724;SDS011;1370;52.596;13.112;2022-12-13T02:28:56;33.58;;;18.38;;
2724;SDS011;1370;52.596;13.112;2022-12-13T02:31:27;38.08;;;18.80;;
2724;SDS011;1370;52.596;13.112;2022-12-13T02:37:06;31.73;;;18.50;;
2724;SDS011;1370;52.596;13.112;2022-12-13T02:40:06;25.48;;;15.40;;
2724;SDS011;1370;52.596;13.112;2022-12-13T02:42:42;27.10;;;17.48;;
2724;SDS011;1370;52.596;13.112;2022-12-13T02:45:14;34.33;;;18.20;;
2724;SDS011;1370;52.596;13.112;2022-12-13T02:47:41;32.63;;;19.70;;
2724;SDS011;1370;52.596;13.112;2022-12-13T02:50:08;31.77;;;18.98;;
2724;SDS011;1370;52.596;13.112;2022-12-13T02:52:34;32.17;;;19.38;;
2724;SDS011;1370;52.596;13.112;2022-12-13T02:55:04;34.80;;;19.57;;
2724;SDS011;1370;52.596;13.112;2022-12-13T02:57:33;35.63;;;20.37;;
2724;SDS011;1370;52.596;13.112;2022-12-13T03:00:01;35.30;;;19.65;;
2724;SDS011;1370;52.596;13.112;2022-12-13T03:02:40;36.23;;;18.50;;
2724;SDS011;1370;52.596;13.112;2022-12-13T03:10:47;33.57;;;18.17;;
2724;SDS011;1370;52.596;13.112;2022-12-13T03:13:24;33.77;;;19.47;;
2724;SDS011;1370;52.596;13.112;2022-12-13T03:18:35;31.80;;;18.13;;
2724;SDS011;1370;52.596;13.112;2022-12-13T03:21:03;35.83;;;18.97;;
2724;SDS011;1370;52.596;13.112;2022-12-13T03:23:30;29.70;;;17.65;;
2724;SDS011;1370;52.596;13.112;2022-12-13T03:26:00;33.93;;;18.83;;
2724;SDS011;1370;52.596;13.112;2022-12-13T03:28:29;33.25;;;18.50;;
2724;SDS011;1370;52.596;13.112;2022-12-13T03:30:54;26.00;;;16.67;;
2724;SDS011;1370;52.596;13.112;2022-12-13T03:33:20;32.33;;;18.57;;
2724;SDS011;1370;52.596;13.112;2022-12-13T03:35:46;39.70;;;19.63;;
2724;SDS011;1370;52.596;13.112;2022-12-13T03:38:12;26.67;;;17.20;;
2724;SDS011;1370;52.596;13.112;2022-12-13T03:40:39;33.13;;;17.67;;
2724;SDS011;1370;52.596;13.112;2022-12-13T03:43:04;33.70;;;17.30;;
2724;SDS011;1370;52.596;13.112;2022-12-13T03:45:29;26.53;;;15.90;;
2724;SDS011;1370;52.596;13.112;2022-12-13T03:47:54;31.30;;;17.27;;
2724;SDS011;1370;52.596;13.112;2022-12-13T03:50:20;23.03;;;17.00;;
2724;SDS011;1370;52.596;13.112;2022-12-13T03:52:45;30.00;;;16.93;;
2724;SDS011;1370;52.596;13.112;2022-12-13T03:55:11;30.17;;;18.05;;
2724;SDS011;1370;52.596;13.112;2022-12-13T03:57:37;29.17;;;16.40;;
2724;SDS011;1370;52.596;13.112;2022-12-13T04:00:03;32.80;;;16.57;;
2724;SDS011;1370;52.596;13.112;2022-12-13T04:02:28;32.47;;;16.15;;
2724;SDS011;1370;52.596;13.112;2022-12-13T04:04:54;26.60;;;15.97;;
2724;SDS011;1370;52.596;13.112;2022-12-13T04:07:19;33.70;;;17.00;;
2724;SDS011;1370;52.596;13.112;2022-12-13T04:09:44;28.87;;;17.57;;
2724;SDS011;1370;52.596;13.112;2022-12-13T04:12:10;33.10;;;17.97;;
2724;SDS011;1370;52.596;13.112;2022-12-13T04:14:53;30.40;;;16.80;;
2724;SDS011;1370;52.596;13.112;2022-12-13T04:17:19;38.00;;;17.10;;
2724;SDS011;1370;52.596;13.112;2022-12-13T04:19:44;27.93;;;17.93;;
2724;SDS011;1370;52.596;13.112;2022-12-13T04:22:09;28.93;;;16.23;;
2724;SDS011;1370;52.596;13.112;2022-12-13T04:24:35;30.10;;;14.50;;
2724;SDS011;1370;52.596;13.112;2022-12-13T04:27:01;37.70;;;16.40;;
2724;SDS011;1370;52.596;13.112;2022-12-13T04:29:27;33.40;;;18.17;;
2724;SDS011;1370;52.596;13.112;2022-12-13T04:31:52;29.27;;;17.93;;
2724;SDS011;1370;52.596;13.112;2022-12-13T04:34:18;27.90;;;17.97;;
2724;SDS011;1370;52.596;13.112;2022-12-13T04:36:43;26.73;;;15.73;;
2724;SDS011;1370;52.596;13.112;2022-12-13T04:39:08;23.50;;;15.70;;
2724;SDS011;1370;52.596;13.112;2022-12-13T04:41:34;29.63;;;16.43;;
2724;SDS011;1370;52.596;13.112;2022-12-13T04:44:00;25.70;;;15.43;;
2724;SDS011;1370;52.596;13.112;2022-12-13T04:46:26;29.40;;;18.87;;
2724;SDS011;1370;52.596;13.112;2022-12-13T04:48:51;29.03;;;16.30;;
2724;SDS011;1370;52.596;13.112;2022-12-13T04:51:17;23.60;;;14.70;;
2724;SDS011;1370;52.596;13.112;2022-12-13T04:53:42;22.33;;;14.97;;
2724;SDS011;1370;52.596;13.112;2022-12-13T04:56:07;30.17;;;14.97;;
2724;SDS011;1370;52.596;13.112;2022-12-13T04:58:33;25.90;;;15.17;;
2724;SDS011;1370;52.596;13.112;2022-12-13T05:00:58;23.90;;;15.30;;
2724;SDS011;1370;52.596;13.112;2022-12-13T05:03:23;25.33;;;14.57;;
2724;SDS011;1370;52.596;13.112;2022-12-13T05:05:49;27.93;;;16.33;;
2724;SDS011;1370;52.596;13.112;2022-12-13T05:08:14;21.20;;;14.77;;
2724;SDS011;1370;52.596;13.112;2022-12-13T05:10:39;24.60;;;13.57;;
2724;SDS011;1370;52.596;13.112;2022-12-13T05:13:05;24.97;;;16.57;;
2724;SDS011;1370;52.596;13.112;2022-12-13T05:15:30;28.80;;;15.33;;
2724;SDS011;1370;52.596;13.112;2022-12-13T05:18:03;26.17;;;14.97;;
2724;SDS011;1370;52.596;13.112;2022-12-13T05:20:29;24.70;;;13.70;;
2724;SDS011;1370;52.596;13.112;2022-12-13T05:22:55;24.63;;;13.13;;
2724;SDS011;1370;52.596;13.112;2022-12-13T05:25:21;25.57;;;15.50;;
2724;SDS011;1370;52.596;13.112;2022-12-13T05:27:47;27.88;;;18.17;;
2724;SDS011;1370;52.596;13.112;2022-12-13T05:30:13;27.48;;;14.70;;
2724;SDS011;1370;52.596;13.112;2022-12-13T05:32:38;30.70;;;15.53;;
2724;SDS011;1370;52.596;13.112;2022-12-13T05:35:04;21.73;;;14.20;;
2724;SDS011;1370;52.596;13.112;2022-12-13T05:37:29;23.47;;;16.53;;
2724;SDS011;1370;52.596;13.112;2022-12-13T05:39:55;26.87;;;16.27;;
2724;SDS011;1370;52.596;13.112;2022-12-13T05:42:20;23.80;;;16.03;;
2724;SDS011;1370;52.596;13.112;2022-12-13T05:44:45;28.23;;;15.93;;
2724;SDS011;1370;52.596;13.112;2022-12-13T05:47:11;26.00;;;16.13;;
2724;SDS011;1370;52.596;13.112;2022-12-13T05:49:36;30.90;;;17.00;;
2724;SDS011;1370;52.596;13.112;2022-12-13T05:52:01;23.23;;;15.30;;
2724;SDS011;1370;52.596;13.112;2022-12-13T05:54:26;30.13;;;17.47;;
2724;SDS011;1370;52.596;13.112;2022-12-13T05:56:52;37.00;;;16.70;;
2724;SDS011;1370;52.596;13.112;2022-12-13T05:59:17;30.27;;;17.60;;
2724;SDS011;1370;52.596;13.112;2022-12-13T06:01:42;33.43;;;19.00;;
2724;SDS011;1370;52.596;13.112;2022-12-13T06:04:08;25.90;;;16.87;;
2724;SDS011;1370;52.596;13.112;2022-12-13T06:06:33;27.57;;;17.30;;
2724;SDS011;1370;52.596;13.112;2022-12-13T06:08:58;33.70;;;19.67;;
2724;SDS011;1370;52.596;13.112;2022-12-13T06:11:24;36.63;;;19.97;;
2724;SDS011;1370;52.596;13.112;2022-12-13T06:13:49;36.97;;;19.50;;
2724;SDS011;1370;52.596;13.112;2022-12-13T06:16:18;39.80;;;21.20;;
2724;SDS011;1370;52.596;13.112;2022-12-13T06:18:43;29.97;;;19.63;;
2724;SDS011;1370;52.596;13.112;2022-12-13T06:21:09;39.30;;;21.30;;
2724;SDS011;1370;52.596;13.112;2022-12-13T06:23:34;29.07;;;18.23;;
2724;SDS011;1370;52.596;13.112;2022-12-13T06:26:03;32.50;;;19.90;;
2724;SDS011;1370;52.596;13.112;2022-12-13T06:28:29;36.60;;;21.50;;
2724;SDS011;1370;52.596;13.112;2022-12-13T06:30:57;39.63;;;22.03;;
2724;SDS011;1370;52.596;13.112;2022-12-13T06:33:23;39.40;;;22.17;;
2724;SDS011;1370;52.596;13.112;2022-12-13T06:35:49;34.60;;;20.07;;
2724;SDS011;1370;52.596;13.112;2022-12-13T06:38:16;38.13;;;20.77;;
2724;SDS011;1370;52.596;13.112;2022-12-13T06:40:41;34.07;;;19.90;;
2724;SDS011;1370;52.596;13.112;2022-12-13T06:43:07;33.67;;;20.00;;
2724;SDS011;1370;52.596;13.112;2022-12-13T06:45:32;33.57;;;19.87;;
2724;SDS011;1370;52.596;13.112;2022-12-13T06:47:57;42.53;;;20.47;;
2724;SDS011;1370;52.596;13.112;2022-12-13T06:50:22;41.53;;;19.30;;
2724;SDS011;1370;52.596;13.112;2022-12-13T06:52:48;42.83;;;22.10;;
2724;SDS011;1370;52.596;13.112;2022-12-13T06:55:13;35.43;;;20.80;;
2724;SDS011;1370;52.596;13.112;2022-12-13T06:57:39;44.87;;;22.67;;
2724;SDS011;1370;52.596;13.112;2022-12-13T07:00:04;32.40;;;21.30;;
2724;SDS011;1370;52.596;13.112;2022-12-13T07:02:39;40.03;;;21.50;;
2724;SDS011;1370;52.596;13.112;2022-12-13T07:05:04;38.78;;;23.27;;
2724;SDS011;1370;52.596;13.112;2022-12-13T07:07:30;36.90;;;21.20;;
2724;SDS011;1370;52.596;13.112;2022-12-13T07:09:55;40.27;;;23.50;;
2724;SDS011;1370;52.596;13.112;2022-12-13T07:12:21;37.37;;;21.40;;
2724;SDS011;1370;52.596;13.112;2022-12-13T07:14:47;41.70;;;23.10;;
2724;SDS011;1370;52.596;13.112;2022-12-13T07:17:12;35.03;;;21.70;;
2724;SDS011;1370;52.596;13.112;2022-12-13T07:19:37;32.80;;;20.90;;
2724;SDS011;1370;52.596;13.112;2022-12-13T07:22:03;37.40;;;22.00;;
2724;SDS011;1370;52.596;13.112;2022-12-13T07:24:31;40.27;;;24.70;;
2724;SDS011;1370;52.596;13.112;2022-12-13T07:26:58;40.87;;;23.40;;
2724;SDS011;1370;52.596;13.112;2022-12-13T07:29:23;44.40;;;23.37;;
2724;SDS011;1370;52.596;13.112;2022-12-13T07:31:48;36.87;;;21.47;;
2724;SDS011;1370;52.596;13.112;2022-12-13T07:34:14;34.10;;;23.20;;
2724;SDS011;1370;52.596;13.112;2022-12-13T07:36:39;41.30;;;23.43;;
2724;SDS011;1370;52.596;13.112;2022-12-13T07:39:04;46.40;;;23.37;;
2724;SDS011;1370;52.596;13.112;2022-12-13T07:41:30;40.37;;;24.40;;
2724;SDS011;1370;52.596;13.112;2022-12-13T07:43:55;50.90;;;26.83;;
2724;SDS011;1370;52.596;13.112;2022-12-13T07:46:20;48.53;;;26.63;;
2724;SDS011;1370;52.596;13.112;2022-12-13T07:48:46;36.03;;;23.07;;
2724;SDS011;1370;52.596;13.112;2022-12-13T07:51:11;44.67;;;25.20;;
2724;SDS011;1370;52.596;13.112;2022-12-13T07:53:37;43.40;;;23.67;;
2724;SDS011;1370;52.596;13.112;2022-12-13T07:56:03;36.85;;;22.27;;
2724;SDS011;1370;52.596;13.112;2022-12-13T07:58:29;38.30;;;21.77;;
2724;SDS011;1370;52.596;13.112;2022-12-13T08:00:58;40.87;;;23.90;;
2724;SDS011;1370;52.596;13.112;2022-12-13T08:03:25;40.45;;;24.38;;
2724;SDS011;1370;52.596;13.112;2022-12-13T08:05:57;38.03;;;21.70;;
2724;SDS011;1370;52.596;13.112;2022-12-13T08:08:25;33.47;;;21.30;;
2724;SDS011;1370;52.596;13.112;2022-12-13T08:10:51;40.67;;;22.37;;
2724;SDS011;1370;52.596;13.112;2022-12-13T08:13:16;54.97;;;24.27;;
2724;SDS011;1370;52.596;13.112;2022-12-13T08:15:41;41.20;;;22.70;;
2724;SDS011;1370;52.596;13.112;2022-12-13T08:18:07;39.40;;;21.37;;
2724;SDS011;1370;52.596;13.112;2022-12-13T08:20:32;34.80;;;22.43;;
2724;SDS011;1370;52.596;13.112;2022-12-13T08:22:58;35.17;;;21.50;;
2724;SDS011;1370;52.596;13.112;2022-12-13T08:25:23;32.33;;;21.43;;
2724;SDS011;1370;52.596;13.112;2022-12-13T08:27:49;36.47;;;21.57;;
2724;SDS011;1370;52.596;13.112;2022-12-13T08:30:14;40.73;;;20.90;;
2724;SDS011;1370;52.596;13.112;2022-12-13T08:32:39;42.47;;;22.70;;
2724;SDS011;1370;52.596;13.112;2022-12-13T08:35:05;52.00;;;24.30;;
2724;SDS011;1370;52.596;13.112;2022-12-13T08:37:30;49.33;;;27.67;;
2724;SDS011;1370;52.596;13.112;2022-12-13T08:39:56;51.50;;;24.00;;
2724;SDS011;1370;52.596;13.112;2022-12-13T08:42:21;43.13;;;25.50;;
2724;SDS011;1370;52.596;13.112;2022-12-13T08:44:49;50.47;;;24.13;;
2724;SDS011;1370;52.596;13.112;2022-12-13T08:47:16;39.75;;;22.88;;
2724;SDS011;1370;52.596;13.112;2022-12-13T08:49:41;52.17;;;25.23;;
2724;SDS011;1370;52.596;13.112;2022-12-13T08:52:06;45.70;;;23.40;;
2724;SDS011;1370;52.596;13.112;2022-12-13T08:54:32;40.70;;;21.47;;
2724;SDS011;1370;52.596;13.112;2022-12-13T08:56:57;39.77;;;21.10;;
2724;SDS011;1370;52.596;13.112;2022-12-13T08:59:23;40.10;;;22.90;;
2724;SDS011;1370;52.596;13.112;2022-12-13T09:01:49;42.63;;;23.08;;
2724;SDS011;1370;52.596;13.112;2022-12-13T09:04:15;40.80;;;23.27;;
2724;SDS011;1370;52.596;13.112;2022-12-13T09:06:41;55.00;;;25.63;;
2724;SDS011;1370;52.596;13.112;2022-12-13T09:09:07;38.90;;;21.60;;
2724;SDS011;1370;52.596;13.112;2022-12-13T09:11:32;42.27;;;23.00;;
2724;SDS011;1370;52.596;13.112;2022-12-13T09:13:57;42.57;;;24.07;;
2724;SDS011;1370;52.596;13.112;2022-12-13T09:16:23;51.57;;;24.77;;
2724;SDS011;1370;52.596;13.112;2022-12-13T09:18:49;44.50;;;24.20;;
2724;SDS011;1370;52.596;13.112;2022-12-13T09:21:15;40.40;;;23.40;;
2724;SDS011;1370;52.596;13.112;2022-12-13T09:23:40;39.87;;;23.33;;
2724;SDS011;1370;52.596;13.112;2022-12-13T09:26:06;37.63;;;23.20;;
2724;SDS011;1370;52.596;13.112;2022-12-13T09:28:32;47.67;;;24.90;;
2724;SDS011;1370;52.596;13.112;2022-12-13T09:30:58;46.58;;;23.92;;
2724;SDS011;1370;52.596;13.112;2022-12-13T09:33:24;40.20;;;21.57;;
2724;SDS011;1370;52.596;13.112;2022-12-13T09:35:49;34.90;;;21.13;;
2724;SDS011;1370;52.596;13.112;2022-12-13T09:38:16;38.35;;;22.98;;
2724;SDS011;1370;52.596;13.112;2022-12-13T09:40:42;40.60;;;23.10;;
2724;SDS011;1370;52.596;13.112;2022-12-13T09:43:09;46.75;;;23.38;;
2724;SDS011;1370;52.596;13.112;2022-12-13T09:45:37;46.47;;;23.83;;
2724;SDS011;1370;52.596;13.112;2022-12-13T09:48:04;33.83;;;23.25;;
2724;SDS011;1370;52.596;13.112;2022-12-13T09:50:31;43.20;;;22.13;;
2724;SDS011;1370;52.596;13.112;2022-12-13T09:53:03;42.03;;;23.70;;
2724;SDS011;1370;52.596;13.112;2022-12-13T09:55:40;35.00;;;21.90;;
2724;SDS011;1370;52.596;13.112;2022-12-13T09:58:11;44.27;;;22.53;;
2724;SDS011;1370;52.596;13.112;2022-12-13T10:00:38;38.88;;;22.13;;
2724;SDS011;1370;52.596;13.112;2022-12-13T10:03:05;40.80;;;23.15;;
2724;SDS011;1370;52.596;13.112;2022-12-13T10:07:57;35.05;;;21.35;;
2724;SDS011;1370;52.596;13.112;2022-12-13T10:10:23;41.42;;;21.38;;
2724;SDS011;1370;52.596;13.112;2022-12-13T10:12:51;35.77;;;21.77;;
2724;SDS011;1370;52.596;13.112;2022-12-13T10:15:20;40.83;;;24.20;;
2724;SDS011;1370;52.596;13.112;2022-12-13T10:17:46;37.87;;;21.43;;
2724;SDS011;1370;52.596;13.112;2022-12-13T10:20:16;38.50;;;21.67;;
2724;SDS011;1370;52.596;13.112;2022-12-13T10:22:43;40.40;;;21.53;;
2724;SDS011;1370;52.596;13.112;2022-12-13T10:25:08;37.50;;;23.00;;
2724;SDS011;1370;52.596;13.112;2022-12-13T10:27:37;43.10;;;23.10;;
2724;SDS011;1370;52.596;13.112;2022-12-13T10:32:51;39.63;;;20.97;;
2724;SDS011;1370;52.596;13.112;2022-12-13T10:37:53;48.40;;;22.87;;
2724;SDS011;1370;52.596;13.112;2022-12-13T10:40:23;52.10;;;24.30;;
2724;SDS011;1370;52.596;13.112;2022-12-13T10:45:40;34.67;;;22.30;;
2724;SDS011;1370;52.596;13.112;2022-12-13T10:48:15;34.80;;;20.25;;
2724;SDS011;1370;52.596;13.112;2022-12-13T10:50:42;37.30;;;19.57;;
2724;SDS011;1370;52.596;13.112;2022-12-13T10:53:11;31.60;;;18.70;;
2724;SDS011;1370;52.596;13.112;2022-12-13T10:55:41;29.50;;;17.70;;
2724;SDS011;1370;52.596;13.112;2022-12-13T10:58:06;27.03;;;16.30;;
2724;SDS011;1370;52.596;13.112;2022-12-13T11:00:39;34.47;;;17.57;;
2724;SDS011;1370;52.596;13.112;2022-12-13T11:03:09;27.30;;;18.10;;
2724;SDS011;1370;52.596;13.112;2022-12-13T11:05:37;25.43;;;17.80;;
2724;SDS011;1370;52.596;13.112;2022-12-13T11:08:22;31.03;;;18.43;;
2724;SDS011;1370;52.596;13.112;2022-12-13T11:10:57;23.03;;;15.20;;
2724;SDS011;1370;52.596;13.112;2022-12-13T11:13:27;33.00;;;16.70;;
2724;SDS011;1370;52.596;13.112;2022-12-13T11:15:57;24.60;;;15.93;;
2724;SDS011;1370;52.596;13.112;2022-12-13T11:18:23;26.63;;;15.40;;
2724;SDS011;1370;52.596;13.112;2022-12-13T11:20:53;26.97;;;16.30;;
2724;SDS011;1370;52.596;13.112;2022-12-13T11:23:30;27.20;;;16.87;;
2724;SDS011;1370;52.596;13.112;2022-12-13T11:25:59;35.10;;;18.00;;
2724;SDS011;1370;52.596;13.112;2022-12-13T11:28:37;26.07;;;17.30;;
2724;SDS011;1370;52.596;13.112;2022-12-13T11:31:27;31.00;;;16.93;;
2724;SDS011;1370;52.596;13.112;2022-12-13T11:36:49;30.27;;;17.47;;
2724;SDS011;1370;52.596;13.112;2022-12-13T11:39:36;29.80;;;17.53;;
2724;SDS011;1370;52.596;13.112;2022-12-13T11:42:20;37.38;;;20.60;;
2724;SDS011;1370;52.596;13.112;2022-12-13T11:47:44;33.67;;;21.43;;
2724;SDS011;1370;52.596;13.112;2022-12-13T11:50:19;38.10;;;21.80;;
2724;SDS011;1370;52.596;13.112;2022-12-13T11:52:49;54.00;;;28.93;;
2724;SDS011;1370;52.596;13.112;2022-12-13T11:55:37;52.03;;;28.40;;
2724;SDS011;1370;52.596;13.112;2022-12-13T12:00:55;27.23;;;14.90;;
2724;SDS011;1370;52.596;13.112;2022-12-13T12:03:38;25.37;;;16.20;;
2724;SDS011;1370;52.596;13.112;2022-12-13T12:06:12;30.03;;;15.70;;
2724;SDS011;1370;52.596;13.112;2022-12-13T12:08:44;41.97;;;24.10;;
2724;SDS011;1370;52.596;13.112;2022-12-13T12:11:13;79.13;;;40.97;;
2724;SDS011;1370;52.596;13.112;2022-12-13T12:13:45;72.70;;;34.60;;
2724;SDS011;1370;52.596;13.112;2022-12-13T12:19:11;39.03;;;21.23;;
2724;SDS011;1370;52.596;13.112;2022-12-13T12:21:44;31.30;;;19.97;;
2724;SDS011;1370;52.596;13.112;2022-12-13T12:24:28;31.13;;;16.60;;
2724;SDS011;1370;52.596;13.112;2022-12-13T12:27:13;30.27;;;17.52;;
2724;SDS011;1370;52.596;13.112;2022-12-13T12:29:56;31.50;;;16.07;;
2724;SDS011;1370;52.596;13.112;2022-12-13T12:32:40;21.10;;;14.90;;
2724;SDS011;1370;52.596;13.112;2022-12-13T12:35:22;27.40;;;16.57;;
2724;SDS011;1370;52.596;13.112;2022-12-13T12:38:04;25.37;;;16.50;;
2724;SDS011;1370;52.596;13.112;2022-12-13T12:40:50;31.67;;;19.93;;
2724;SDS011;1370;52.596;13.112;2022-12-13T12:43:27;39.57;;;24.63;;
2724;SDS011;1370;52.596;13.112;2022-12-13T12:46:22;32.43;;;18.13;;
2724;SDS011;1370;52.596;13.112;2022-12-13T12:49:14;36.90;;;18.37;;
2724;SDS011;1370;52.596;13.112;2022-12-13T12:54:53;34.77;;;20.27;;
2724;SDS011;1370;52.596;13.112;2022-12-13T13:00:15;28.13;;;16.53;;
2724;SDS011;1370;52.596;13.112;2022-12-13T13:02:55;31.17;;;16.83;;
2724;SDS011;1370;52.596;13.112;2022-12-13T13:05:32;33.60;;;18.50;;
2724;SDS011;1370;52.596;13.112;2022-12-13T13:08:04;37.47;;;20.13;;
2724;SDS011;1370;52.596;13.112;2022-12-13T13:10:33;40.80;;;20.70;;
2724;SDS011;1370;52.596;13.112;2022-12-13T13:12:58;31.63;;;17.53;;
2724;SDS011;1370;52.596;13.112;2022-12-13T13:17:55;33.57;;;19.03;;
2724;SDS011;1370;52.596;13.112;2022-12-13T13:20:21;34.27;;;18.70;;
2724;SDS011;1370;52.596;13.112;2022-12-13T13:22:47;28.30;;;18.10;;
2724;SDS011;1370;52.596;13.112;2022-12-13T13:25:51;33.37;;;18.33;;
2724;SDS011;1370;52.596;13.112;2022-12-13T13:28:09;27.87;;;16.90;;
2724;SDS011;1370;52.596;13.112;2022-12-13T13:30:51;30.83;;;18.83;;
2724;SDS011;1370;52.596;13.112;2022-12-13T13:39:10;33.33;;;20.53;;
2724;SDS011;1370;52.596;13.112;2022-12-13T13:41:40;30.47;;;17.33;;
2724;SDS011;1370;52.596;13.112;2022-12-13T13:47:12;25.93;;;16.80;;
2724;SDS011;1370;52.596;13.112;2022-12-13T13:52:21;35.27;;;18.90;;
2724;SDS011;1370;52.596;13.112;2022-12-13T14:00:16;31.45;;;19.52;;
2724;SDS011;1370;52.596;13.112;2022-12-13T14:05:50;35.10;;;18.50;;
2724;SDS011;1370;52.596;13.112;2022-12-13T14:11:53;30.33;;;18.27;;
2724;SDS011;1370;52.596;13.112;2022-12-13T14:15:11;32.53;;;18.63;;
2724;SDS011;1370;52.596;13.112;2022-12-13T14:23:58;34.03;;;19.80;;
2724;SDS011;1370;52.596;13.112;2022-12-13T14:26:38;39.57;;;22.20;;
2724;SDS011;1370;52.596;13.112;2022-12-13T14:29:26;29.95;;;19.83;;
2724;SDS011;1370;52.596;13.112;2022-12-13T14:31:53;35.47;;;20.15;;
2724;SDS011;1370;52.596;13.112;2022-12-13T14:34:23;42.80;;;21.80;;
2724;SDS011;1370;52.596;13.112;2022-12-13T14:36:57;29.83;;;19.57;;
2724;SDS011;1370;52.596;13.112;2022-12-13T14:39:26;30.37;;;19.83;;
2724;SDS011;1370;52.596;13.112;2022-12-13T14:41:56;32.27;;;18.83;;
2724;SDS011;1370;52.596;13.112;2022-12-13T14:44:27;37.27;;;22.30;;
2724;SDS011;1370;52.596;13.112;2022-12-13T14:46:56;27.53;;;18.50;;
2724;SDS011;1370;52.596;13.112;2022-12-13T14:49:23;33.37;;;20.20;;
2724;SDS011;1370;52.596;13.112;2022-12-13T14:51:55;34.42;;;19.90;;
2724;SDS011;1370;52.596;13.112;2022-12-13T14:54:25;32.63;;;21.60;;
2724;SDS011;1370;52.596;13.112;2022-12-13T14:56:55;34.90;;;19.30;;
2724;SDS011;1370;52.596;13.112;2022-12-13T14:59:23;34.83;;;20.20;;
2724;SDS011;1370;52.596;13.112;2022-12-13T15:01:53;33.70;;;22.30;;
2724;SDS011;1370;52.596;13.112;2022-12-13T15:04:31;41.72;;;22.80;;
2724;SDS011;1370;52.596;13.112;2022-12-13T15:09:45;41.40;;;23.27;;
2724;SDS011;1370;52.596;13.112;2022-12-13T15:12:11;45.67;;;22.93;;
2724;SDS011;1370;52.596;13.112;2022-12-13T15:14:42;58.70;;;32.60;;
2724;SDS011;1370;52.596;13.112;2022-12-13T15:17:28;115.70;;;47.40;;
2724;SDS011;1370;52.596;13.112;2022-12-13T15:19:58;159.38;;;79.70;;
2724;SDS011;1370;52.596;13.112;2022-12-13T15:22:24;110.53;;;51.73;;
2724;SDS011;1370;52.596;13.112;2022-12-13T15:24:49;72.50;;;37.90;;
2724;SDS011;1370;52.596;13.112;2022-12-13T15:27:16;56.47;;;32.60;;
2724;SDS011;1370;52.596;13.112;2022-12-13T15:29:41;35.50;;;20.80;;
2724;SDS011;1370;52.596;13.112;2022-12-13T15:32:10;45.88;;;27.73;;
2724;SDS011;1370;52.596;13.112;2022-12-13T15:34:40;45.40;;;25.97;;
2724;SDS011;1370;52.596;13.112;2022-12-13T15:39:37;44.37;;;26.47;;
2724;SDS011;1370;52.596;13.112;2022-12-13T15:42:04;46.38;;;25.15;;
2724;SDS011;1370;52.596;13.112;2022-12-13T15:44:43;43.53;;;25.20;;
2724;SDS011;1370;52.596;13.112;2022-12-13T15:47:11;33.65;;;20.85;;
2724;SDS011;1370;52.596;13.112;2022-12-13T15:49:38;34.45;;;23.73;;
2724;SDS011;1370;52.596;13.112;2022-12-13T15:52:05;36.20;;;23.77;;
2724;SDS011;1370;52.596;13.112;2022-12-13T15:55:21;37.90;;;23.07;;
2724;SDS011;1370;52.596;13.112;2022-12-13T16:03:05;37.70;;;25.35;;
2724;SDS011;1370;52.596;13.112;2022-12-13T16:05:37;52.88;;;26.80;;
2724;SDS011;1370;52.596;13.112;2022-12-13T16:08:17;47.25;;;26.15;;
2724;SDS011;1370;52.596;13.112;2022-12-13T16:10:46;45.22;;;27.10;;
2724;SDS011;1370;52.596;13.112;2022-12-13T16:13:15;47.28;;;27.83;;
2724;SDS011;1370;52.596;13.112;2022-12-13T16:15:50;45.50;;;27.65;;